Airfield :
LOGIN :

Register | Disclaimer

   EN    FR    IT 

 










Legend :    VFR   Marginal VFR   IFR   Intensive IFR   Very Intensive IFR
Visi :
Ceiling :
>= 8 km
>= 3000ft
5 to 8 km
1000 to 3000 ft
1500m to 5 km
500 to 1000 ft
800 to 1500m
200 to 500 ft
< 800m
< 200 ft
Symbols :   Thunderstorms  Fog  Heavy snow  Heavy precipitations  Wind > 20 kt
SIGMETs :     Misc.  Thunderstorms  Icing  Turbulence  Mountain Waves  Volcanic Ashes







- Airport Elevation : 63 ft
- IATA code : BZM


EHWO - Woensdrecht Airbase

CURRENT METAR :
  • 201555Z AUTO 03011KT 320V110 9999 NCD 24/01 Q1026 BLU

EXPIRED METARs :
  • 201525Z AUTO 02012KT 310V070 9999 NCD 24/01 Q1026 BLU
  • 201455Z AUTO 02011KT 300V080 9999 NCD 25/02 Q1026 BLU
  • 201425Z AUTO 05010KT 020V140 9999 NCD 25/03 Q1026 BLU
  • 201355Z AUTO 05009KT 340V140 9999 NCD 25/02 Q1026 BLU
  • 201325Z AUTO VRB06KT 9999 NCD 24/02 Q1027 BLU

Expired Forecast.
No reported NOTAMs for that airfield.



MET'MAP, your aeronautical weather chart ! - Copyright ORBIFLY December 2007 - Disclaimer

ORBIFLY MET'MAP TEAM :

Programming & Development : Alexandra Zaïnal
Concept & Development : Baudouin d'Aumeries
Co-Development & Prog : Marc-Olivier Méhu
Technical & hardware support : Manuel Goepfert

Contact : metmap@orbifly.com




SOURCES & CREDITS :

   NOAA